Terminal Aerodrome Forecast
Issued by NWS Pocatello, ID

Home | Current Version | Previous Version | Text Only | Print | Product List | Glossary On
Versions: 1 2 3 4 5 6 7 8 9 10 11 12 13 14 15 16 17 18 19 20 21 22 23 24
000
FTUS45 KPIH 230100 AAA
TAFPIH
TAF AMD
KPIH 230104Z 2301/2324 34012KT P6SM VCSH SCT025 BKN080
     FM230300 VRB06KT P6SM SCT010 SCT050
     FM231900 VRB06KT P6SM FEW010 BKN120=

USA.gov is the U.S. government's official web portal to all federal, state and local government web resources and services.